Time;durP1;ratioP1;P1;durP2;ratioP2;P2;SDS_P1;SDS_P2;PMS_P1;PMS_P2;Temp;Humidity;BMP_temperature;BMP_pressure;BME280_temperature;BME280_humidity;BME280_pressure;Samples;Min_cycle;Max_cycle;Signal;HPM_P1;HPM_P2
2022/06/22 00:02:06;;;;;;;;;;;20.10;99.90;;;;;;4974781;28;19917;-80
2022/06/22 00:04:44;;;;;;;;;;;20.10;99.90;;;;;;4974779;28;19993;-80
2022/06/22 00:07:28;;;;;;;;;;;20.00;99.90;;;;;;4957416;28;19914;-79
2022/06/22 00:10:02;;;;;;;;;;;19.90;99.90;;;;;;4974809;28;19914;-81
2022/06/22 00:12:29;;;;;;;;;;;19.90;99.90;;;;;;4974992;28;20354;-81
2022/06/22 00:14:56;;;;;;;;;;;19.90;99.90;;;;;;4974831;28;19960;-80
2022/06/22 00:17:35;;;;;;;;;;;19.90;99.90;;;;;;4974651;28;19910;-80
2022/06/22 00:20:07;;;;;;;;;;;19.70;99.90;;;;;;4977605;28;19911;-79
2022/06/22 00:22:44;;;;;;;;;;;19.70;99.90;;;;;;4978400;28;19910;-81
2022/06/22 00:25:12;;;;;;;;;;;19.80;99.90;;;;;;4978617;28;19910;-81
2022/06/22 00:27:38;;;;;;;;;;;19.70;99.90;;;;;;4978354;28;20001;-81
2022/06/22 00:30:09;;;;;;;;;;;19.70;99.90;;;;;;4978215;28;20009;-80
2022/06/22 00:32:35;;;;;;;;;;;19.60;99.90;;;;;;4978265;28;19961;-81
2022/06/22 00:35:19;;;;;;;;;;;19.60;99.90;;;;;;4978159;28;19910;-80
2022/06/22 00:37:45;;;;;;;;;;;19.50;99.90;;;;;;4978420;28;19910;-80
2022/06/22 00:40:15;;;;;;;;;;;19.40;99.90;;;;;;4978318;28;19917;-82
2022/06/22 00:42:44;;;;;;;;;;;19.30;99.90;;;;;;4978140;28;19917;-80
2022/06/22 00:45:12;;;;;;;;;;;19.30;99.90;;;;;;4960551;28;19910;-80
2022/06/22 00:47:40;;;;;;;;;;;19.50;99.90;;;;;;4978099;28;19975;-79
2022/06/22 00:50:09;;;;;;;;;;;19.30;99.90;;;;;;4977433;28;19922;-81
2022/06/22 00:52:40;;;;;;;;;;;19.20;99.90;;;;;;4977885;28;20295;-81
2022/06/22 00:55:16;;;;;;;;;;;19.20;99.90;;;;;;4977875;28;19911;-79
2022/06/22 00:57:46;;;;;;;;;;;19.30;99.90;;;;;;4978138;28;19960;-80
2022/06/22 01:00:16;;;;;;;;;;;19.30;99.90;;;;;;4978037;28;19992;-80
2022/06/22 01:02:54;;;;;;;;;;;19.20;99.90;;;;;;4977716;28;19926;-80
2022/06/22 01:05:34;;;;;;;;;;;19.40;99.90;;;;;;4977681;28;19917;-81
2022/06/22 01:08:05;;;;;;;;;;;19.40;99.90;;;;;;4977677;28;19965;-80
2022/06/22 01:10:43;;;;;;;;;;;19.30;99.90;;;;;;4977587;28;19914;-80
2022/06/22 01:13:19;;;;;;;;;;;19.30;99.90;;;;;;4977927;28;19949;-79
2022/06/22 01:15:48;;;;;;;;;;;19.20;99.90;;;;;;4977717;28;19955;-81
2022/06/22 01:18:23;;;;;;;;;;;19.30;99.90;;;;;;4977409;28;19910;-80
2022/06/22 01:20:58;;;;;;;;;;;19.30;99.90;;;;;;4977355;28;19917;-81
2022/06/22 01:23:42;;;;;;;;;;;19.20;99.90;;;;;;4977421;28;19918;-80
2022/06/22 01:26:31;;;;;;;;;;;19.20;99.90;;;;;;4977314;28;19910;-81
2022/06/22 01:29:01;;;;;;;;;;;19.10;99.90;;;;;;4977353;28;19917;-80
2022/06/22 01:31:28;;;;;;;;;;;19.20;99.90;;;;;;4976788;28;19910;-80
2022/06/22 01:33:54;;;;;;;;;;;19.30;99.90;;;;;;4977223;28;19968;-80
2022/06/22 01:36:25;;;;;;;;;;;19.10;99.90;;;;;;4977124;28;19910;-81
2022/06/22 01:38:51;;;;;;;;;;;19.00;99.90;;;;;;4977397;28;19910;-80
2022/06/22 01:41:24;;;;;;;;;;;19.10;99.90;;;;;;4976911;28;20037;-81
2022/06/22 01:43:54;;;;;;;;;;;19.10;99.90;;;;;;4977110;28;20358;-81
2022/06/22 01:46:34;;;;;;;;;;;19.10;99.90;;;;;;4977146;28;19933;-81
2022/06/22 01:49:04;;;;;;;;;;;19.10;99.90;;;;;;4976773;28;20008;-81
2022/06/22 01:51:32;;;;;;;;;;;19.10;99.90;;;;;;4976864;28;19921;-81
2022/06/22 01:54:03;;;;;;;;;;;19.10;99.90;;;;;;4976803;28;19911;-80
2022/06/22 01:56:34;;;;;;;;;;;19.00;99.90;;;;;;4976963;28;19914;-80
2022/06/22 01:59:18;;;;;;;;;;;19.00;99.90;;;;;;4976883;28;19914;-80
2022/06/22 02:01:54;;;;;;;;;;;18.90;99.90;;;;;;4976604;28;19910;-80
2022/06/22 02:04:24;;;;;;;;;;;18.80;99.90;;;;;;4976989;28;19946;-79
2022/06/22 02:09:56;;;;;;;;;;;18.80;99.90;;;;;;4976182;28;19986;-81
2022/06/22 02:12:28;;;;;;;;;;;18.70;99.90;;;;;;4976494;28;19961;-81
2022/06/22 02:15:14;;;;;;;;;;;18.80;99.90;;;;;;4958826;28;19918;-79
2022/06/22 02:17:41;;;;;;;;;;;18.80;99.90;;;;;;4955789;28;20359;-80
2022/06/22 02:20:24;;;;;;;;;;;18.90;99.90;;;;;;4976304;28;19949;-80
2022/06/22 02:22:51;;;;;;;;;;;18.80;99.90;;;;;;4976822;28;20004;-79
2022/06/22 02:25:17;;;;;;;;;;;18.70;99.90;;;;;;4976186;28;19910;-79
2022/06/22 02:27:43;;;;;;;;;;;18.60;99.90;;;;;;4976131;28;19914;-80
2022/06/22 02:30:09;;;;;;;;;;;18.60;99.90;;;;;;4976388;28;19981;-81
2022/06/22 02:32:39;;;;;;;;;;;18.70;99.90;;;;;;4976071;28;19917;-80
2022/06/22 02:35:06;;;;;;;;;;;18.80;99.90;;;;;;4958648;28;19910;-81
2022/06/22 02:37:34;;;;;;;;;;;18.80;99.90;;;;;;4975999;28;19910;-80
2022/06/22 02:40:03;;;;;;;;;;;18.80;99.90;;;;;;4976140;28;20278;-81
2022/06/22 02:45:13;;;;;;;;;;;18.80;99.90;;;;;;4975924;28;19942;-80
2022/06/22 02:47:46;;;;;;;;;;;18.70;99.90;;;;;;4975737;28;19910;-81
2022/06/22 02:50:11;;;;;;;;;;;18.70;99.90;;;;;;4975281;28;19923;-81
2022/06/22 02:52:39;;;;;;;;;;;18.60;99.90;;;;;;4975708;28;20389;-81
2022/06/22 02:55:05;;;;;;;;;;;18.70;99.90;;;;;;4958244;28;19972;-79
2022/06/22 02:57:46;;;;;;;;;;;18.70;99.90;;;;;;4975532;28;20382;-81
2022/06/22 03:00:15;;;;;;;;;;;18.70;99.90;;;;;;4975628;28;19918;-80
2022/06/22 03:02:41;;;;;;;;;;;18.70;99.90;;;;;;4975680;28;19910;-81
2022/06/22 03:05:07;;;;;;;;;;;18.70;99.90;;;;;;4975471;28;19964;-81
2022/06/22 03:07:36;;;;;;;;;;;18.70;99.90;;;;;;4975685;28;20382;-80
2022/06/22 03:10:02;;;;;;;;;;;18.50;99.90;;;;;;4975690;28;19918;-81
2022/06/22 03:12:28;;;;;;;;;;;18.40;99.90;;;;;;4975348;28;20290;-81
2022/06/22 03:14:57;;;;;;;;;;;18.40;99.90;;;;;;4975414;28;19914;-81
2022/06/22 03:17:28;;;;;;;;;;;18.40;99.90;;;;;;4975735;28;20397;-81
2022/06/22 03:19:56;;;;;;;;;;;18.40;99.90;;;;;;4957835;28;20276;-81
2022/06/22 03:22:43;;;;;;;;;;;18.20;99.90;;;;;;4975269;28;19910;-80
2022/06/22 03:25:19;;;;;;;;;;;18.40;99.90;;;;;;4975184;28;19910;-80
2022/06/22 03:27:49;;;;;;;;;;;18.40;99.90;;;;;;4975146;28;20290;-80
2022/06/22 03:30:18;;;;;;;;;;;18.50;99.90;;;;;;4975210;28;19914;-80
2022/06/22 03:32:54;;;;;;;;;;;18.40;99.90;;;;;;4975066;28;19914;-81
2022/06/22 03:35:55;;;;;;;;;;;18.40;99.90;;;;;;4975033;28;19916;-79
2022/06/22 03:38:23;;;;;;;;;;;18.30;99.90;;;;;;4934615;29;19910;-80
2022/06/22 03:41:00;;;;;;;;;;;18.20;99.90;;;;;;4966915;28;19953;-80
2022/06/22 03:43:28;;;;;;;;;;;18.20;99.90;;;;;;4975455;28;20358;-80
2022/06/22 03:46:00;;;;;;;;;;;18.20;99.90;;;;;;4974933;28;19914;-80
2022/06/22 03:48:40;;;;;;;;;;;18.00;99.90;;;;;;4974741;28;19919;-80
2022/06/22 03:51:13;;;;;;;;;;;18.00;99.90;;;;;;4974878;28;20056;-81
2022/06/22 03:53:51;;;;;;;;;;;18.20;99.90;;;;;;4976694;28;20337;-80
2022/06/22 03:56:18;;;;;;;;;;;18.30;99.90;;;;;;4981430;28;20422;-79
2022/06/22 03:58:46;;;;;;;;;;;18.30;99.90;;;;;;4981224;28;20389;-80
2022/06/22 04:01:12;;;;;;;;;;;17.70;99.90;;;;;;4981605;28;19917;-79
2022/06/22 04:03:38;;;;;;;;;;;17.30;99.90;;;;;;4981215;28;19933;-80
2022/06/22 04:06:04;;;;;;;;;;;17.50;99.90;;;;;;4981683;28;19910;-79
2022/06/22 04:08:35;;;;;;;;;;;17.70;99.90;;;;;;4981189;28;19925;-79
2022/06/22 04:11:04;;;;;;;;;;;17.90;99.90;;;;;;4981058;28;19914;-79
2022/06/22 04:13:35;;;;;;;;;;;18.00;99.90;;;;;;4981155;28;19910;-80
2022/06/22 04:16:04;;;;;;;;;;;18.20;99.90;;;;;;4981263;28;20385;-80
2022/06/22 04:18:32;;;;;;;;;;;17.90;99.90;;;;;;4981228;28;19968;-79
2022/06/22 04:21:01;;;;;;;;;;;17.60;99.90;;;;;;4981044;28;19957;-80
2022/06/22 04:23:26;;;;;;;;;;;17.50;99.90;;;;;;4981437;28;19990;-80
2022/06/22 04:25:54;;;;;;;;;;;17.70;99.90;;;;;;4963609;28;19945;-81
2022/06/22 04:28:20;;;;;;;;;;;17.80;99.90;;;;;;4981181;28;19911;-80
2022/06/22 04:30:48;;;;;;;;;;;17.90;99.90;;;;;;4980950;28;19915;-79
2022/06/22 04:33:16;;;;;;;;;;;18.20;99.90;;;;;;4981003;28;19968;-79
2022/06/22 04:35:54;;;;;;;;;;;18.30;99.90;;;;;;4980992;28;19910;-81
2022/06/22 04:38:40;;;;;;;;;;;18.30;99.90;;;;;;4980963;28;19910;-80
2022/06/22 04:41:24;;;;;;;;;;;18.40;99.90;;;;;;4980984;28;19910;-80
2022/06/22 04:43:50;;;;;;;;;;;18.50;99.90;;;;;;4981088;28;19910;-81
2022/06/22 04:46:22;;;;;;;;;;;18.60;99.90;;;;;;4980852;28;20000;-80
2022/06/22 04:48:48;;;;;;;;;;;18.70;99.90;;;;;;4980753;28;20378;-79
2022/06/22 04:51:18;;;;;;;;;;;18.80;99.90;;;;;;4980707;28;19920;-80
2022/06/22 04:53:50;;;;;;;;;;;18.70;99.90;;;;;;4980948;28;19957;-80
2022/06/22 04:56:20;;;;;;;;;;;18.60;99.90;;;;;;4980915;28;19910;-79
2022/06/22 04:58:51;;;;;;;;;;;18.40;99.90;;;;;;4962991;28;20005;-80
2022/06/22 05:01:23;;;;;;;;;;;18.80;99.90;;;;;;4980674;28;20330;-80
2022/06/22 05:03:51;;;;;;;;;;;19.10;99.90;;;;;;4980610;28;19976;-81
2022/06/22 05:06:22;;;;;;;;;;;19.30;99.90;;;;;;4977347;28;19964;-80
2022/06/22 05:09:08;;;;;;;;;;;19.40;99.90;;;;;;4977664;28;19910;-80
2022/06/22 05:11:39;;;;;;;;;;;19.40;99.90;;;;;;4976936;28;19969;-79
2022/06/22 05:14:11;;;;;;;;;;;19.30;99.90;;;;;;4977832;28;19971;-81
2022/06/22 05:16:37;;;;;;;;;;;19.30;99.90;;;;;;4977596;28;20018;-80
2022/06/22 05:19:03;;;;;;;;;;;19.50;99.90;;;;;;4977420;28;19981;-79
2022/06/22 05:21:37;;;;;;;;;;;19.60;99.90;;;;;;4977647;28;20342;-79
2022/06/22 05:24:14;;;;;;;;;;;19.60;99.90;;;;;;4977608;28;20001;-81
2022/06/22 05:26:41;;;;;;;;;;;19.50;99.90;;;;;;4977477;28;20004;-80
2022/06/22 05:29:09;;;;;;;;;;;19.60;99.90;;;;;;4977181;28;19993;-79
2022/06/22 05:31:38;;;;;;;;;;;19.80;99.90;;;;;;4977197;28;20046;-80
2022/06/22 05:34:05;;;;;;;;;;;19.80;99.90;;;;;;4977206;28;20301;-80
2022/06/22 05:36:36;;;;;;;;;;;19.90;99.90;;;;;;4977159;28;19997;-82
2022/06/22 05:39:02;;;;;;;;;;;20.00;99.90;;;;;;4977218;28;19918;-81
2022/06/22 05:41:29;;;;;;;;;;;20.10;99.90;;;;;;4977507;28;19910;-80
2022/06/22 05:43:57;;;;;;;;;;;20.30;99.90;;;;;;4977330;28;19910;-81
2022/06/22 05:46:23;;;;;;;;;;;20.30;99.90;;;;;;4976921;28;19922;-81
2022/06/22 05:48:49;;;;;;;;;;;20.40;99.90;;;;;;4976717;28;20037;-81
2022/06/22 05:51:33;;;;;;;;;;;20.60;99.90;;;;;;4976793;28;19915;-81
2022/06/22 05:53:59;;;;;;;;;;;20.70;99.90;;;;;;4976793;28;19933;-80
2022/06/22 05:56:29;;;;;;;;;;;21.00;99.90;;;;;;4976780;28;20355;-81
2022/06/22 05:59:13;;;;;;;;;;;21.40;99.90;;;;;;4976684;28;20281;-80
2022/06/22 06:01:44;;;;;;;;;;;21.50;99.90;;;;;;4976878;28;19911;-80
2022/06/22 06:04:13;;;;;;;;;;;21.50;99.90;;;;;;4976692;28;19958;-82
2022/06/22 06:06:40;;;;;;;;;;;21.60;99.90;;;;;;4976422;28;19910;-81
2022/06/22 06:09:09;;;;;;;;;;;21.60;99.90;;;;;;4976477;28;20008;-81
2022/06/22 06:11:48;;;;;;;;;;;21.60;99.90;;;;;;4976603;28;20000;-81
2022/06/22 06:14:20;;;;;;;;;;;21.90;99.90;;;;;;4976416;28;19914;-82
2022/06/22 06:16:57;;;;;;;;;;;22.30;99.90;;;;;;4976439;28;19914;-82
2022/06/22 06:19:25;;;;;;;;;;;22.40;99.90;;;;;;4976446;28;19910;-81
2022/06/22 06:21:54;;;;;;;;;;;22.20;99.90;;;;;;4976321;28;19957;-81
2022/06/22 06:24:25;;;;;;;;;;;21.90;99.90;;;;;;4976460;28;20330;-80
2022/06/22 06:29:40;;;;;;;;;;;21.80;99.90;;;;;;4975726;28;19921;-80
2022/06/22 06:32:15;;;;;;;;;;;21.50;99.90;;;;;;4976039;28;20367;-81
2022/06/22 06:34:52;;;;;;;;;;;21.60;99.90;;;;;;4976322;28;19910;-80
2022/06/22 06:37:23;;;;;;;;;;;21.60;99.90;;;;;;4976342;28;20365;-80
2022/06/22 06:39:52;;;;;;;;;;;21.70;99.90;;;;;;4975963;28;19911;-81
2022/06/22 06:42:40;;;;;;;;;;;21.70;99.90;;;;;;4958580;28;19993;-80
2022/06/22 06:45:13;;;;;;;;;;;21.60;99.90;;;;;;4976047;28;20004;-81
2022/06/22 06:47:41;;;;;;;;;;;21.60;99.90;;;;;;4975883;28;20356;-81
2022/06/22 06:50:12;;;;;;;;;;;21.90;99.90;;;;;;4975381;28;19922;-80
2022/06/22 06:52:48;;;;;;;;;;;22.10;99.90;;;;;;4957920;28;20211;-82
2022/06/22 06:55:14;;;;;;;;;;;22.30;99.90;;;;;;4958319;28;20306;-80
2022/06/22 06:57:46;;;;;;;;;;;22.50;99.90;;;;;;4975635;28;19996;-81
2022/06/22 07:00:12;;;;;;;;;;;22.70;99.90;;;;;;4975831;28;19918;-81
2022/06/22 07:02:39;;;;;;;;;;;23.20;99.90;;;;;;4975510;28;19914;-80
2022/06/22 07:05:07;;;;;;;;;;;23.90;99.90;;;;;;4975690;28;20363;-82
2022/06/22 07:08:05;;;;;;;;;;;24.40;99.90;;;;;;4975689;28;19910;-80
2022/06/22 07:10:33;;;;;;;;;;;24.60;99.90;;;;;;4953359;28;19961;-81
2022/06/22 07:12:59;;;;;;;;;;;24.90;99.90;;;;;;4975636;28;19914;-80
2022/06/22 07:15:28;;;;;;;;;;;25.20;99.90;;;;;;4975411;28;19956;-83
2022/06/22 07:17:55;;;;;;;;;;;25.40;99.90;;;;;;4975300;28;20295;-82
2022/06/22 07:20:21;;;;;;;;;;;25.50;99.90;;;;;;4975228;28;19910;-81
2022/06/22 07:22:50;;;;;;;;;;;25.90;97.90;;;;;;4975088;28;20052;-81
2022/06/22 07:25:19;;;;;;;;;;;26.20;95.50;;;;;;4975351;28;19910;-80
2022/06/22 07:27:44;;;;;;;;;;;26.30;94.80;;;;;;4975049;28;19911;-82
2022/06/22 07:30:13;;;;;;;;;;;26.20;93.70;;;;;;4974756;28;19914;-82
2022/06/22 07:32:44;;;;;;;;;;;25.90;94.50;;;;;;4975122;28;19957;-81
2022/06/22 07:35:15;;;;;;;;;;;25.80;93.90;;;;;;4975499;28;20363;-81
2022/06/22 07:37:49;;;;;;;;;;;25.50;93.00;;;;;;4957462;28;20295;-80
2022/06/22 07:40:17;;;;;;;;;;;25.30;93.10;;;;;;4975142;28;19910;-81
2022/06/22 07:42:45;;;;;;;;;;;25.20;93.80;;;;;;4975247;28;20426;-80
2022/06/22 07:45:16;;;;;;;;;;;25.50;92.40;;;;;;4975367;28;19917;-81
2022/06/22 07:47:47;;;;;;;;;;;25.90;92.90;;;;;;4975159;28;20010;-82
2022/06/22 07:50:14;;;;;;;;;;;27.30;89.80;;;;;;4974626;28;20306;-81
2022/06/22 07:52:41;;;;;;;;;;;29.60;80.30;;;;;;4975002;28;19970;-80
2022/06/22 07:55:16;;;;;;;;;;;30.20;78.30;;;;;;4974864;28;19910;-82
2022/06/22 07:57:49;;;;;;;;;;;29.50;75.50;;;;;;4975016;28;20434;-80
2022/06/22 08:00:17;;;;;;;;;;;28.30;79.50;;;;;;4974917;28;19949;-81
2022/06/22 08:02:45;;;;;;;;;;;28.60;79.40;;;;;;4974837;28;19914;-82
2022/06/22 08:05:13;;;;;;;;;;;30.50;76.60;;;;;;4974707;28;19918;-82
2022/06/22 08:07:42;;;;;;;;;;;30.10;73.30;;;;;;4974911;28;19911;-82
2022/06/22 08:10:19;;;;;;;;;;;29.20;75.60;;;;;;4974653;28;19914;-83
2022/06/22 08:12:56;;;;;;;;;;;28.40;76.10;;;;;;4974790;28;19997;-81
2022/06/22 08:15:27;;;;;;;;;;;27.50;77.80;;;;;;4974714;28;19917;-81
2022/06/22 08:17:55;;;;;;;;;;;27.10;79.90;;;;;;4975040;28;19910;-81
2022/06/22 08:20:26;;;;;;;;;;;27.00;79.50;;;;;;4974802;28;19911;-80
2022/06/22 08:22:53;;;;;;;;;;;27.20;80.00;;;;;;4974659;28;20385;-81
2022/06/22 08:25:21;;;;;;;;;;;27.50;79.30;;;;;;4974827;28;20393;-80
2022/06/22 08:27:47;;;;;;;;;;;27.40;78.00;;;;;;4974592;28;19997;-82
2022/06/22 08:30:14;;;;;;;;;;;27.40;79.10;;;;;;4974472;28;20017;-81
2022/06/22 08:32:43;;;;;;;;;;;27.20;80.80;;;;;;4974560;28;20008;-80
2022/06/22 08:35:18;;;;;;;;;;;28.30;78.10;;;;;;4974643;28;20053;-80
2022/06/22 08:37:49;;;;;;;;;;;28.60;76.90;;;;;;4974630;28;19914;-81
2022/06/22 08:40:33;;;;;;;;;;;28.50;76.80;;;;;;4974452;28;19910;-81
2022/06/22 08:43:03;;;;;;;;;;;28.40;76.50;;;;;;4978529;28;19910;-82
2022/06/22 08:45:35;;;;;;;;;;;29.40;75.50;;;;;;4978299;28;19921;-81
2022/06/22 08:48:09;;;;;;;;;;;29.20;73.60;;;;;;4977874;28;19910;-81
2022/06/22 08:51:13;;;;;;;;;;;29.50;74.70;;;;;;4978082;28;20393;-80
2022/06/22 08:53:53;;;;;;;;;;;29.80;74.60;;;;;;4937405;29;19911;-81
2022/06/22 08:56:34;;;;;;;;;;;29.70;73.80;;;;;;4973870;28;19918;-81
2022/06/22 08:58:59;;;;;;;;;;;29.30;73.40;;;;;;4977892;28;19910;-81
2022/06/22 09:01:25;;;;;;;;;;;29.50;72.70;;;;;;4977762;28;20286;-80
2022/06/22 09:03:59;;;;;;;;;;;29.70;73.40;;;;;;4977715;28;20385;-81
2022/06/22 09:06:51;;;;;;;;;;;30.40;72.50;;;;;;4977782;28;20347;-80
2022/06/22 09:09:29;;;;;;;;;;;30.90;69.80;;;;;;4977747;28;19911;-81
2022/06/22 09:12:17;;;;;;;;;;;30.90;69.90;;;;;;4977663;28;19910;-81
2022/06/22 09:14:58;;;;;;;;;;;31.00;68.70;;;;;;4977791;28;19910;-82
2022/06/22 09:17:42;;;;;;;;;;;31.10;68.90;;;;;;4977649;28;19914;-81
2022/06/22 09:20:33;;;;;;;;;;;32.30;67.90;;;;;;4977445;28;19910;-81
2022/06/22 09:23:04;;;;;;;;;;;33.80;65.10;;;;;;4977653;28;19917;-82
2022/06/22 09:25:37;;;;;;;;;;;34.80;63.30;;;;;;4977476;28;20291;-83
2022/06/22 09:28:06;;;;;;;;;;;34.30;62.40;;;;;;4977487;28;19946;-81
2022/06/22 09:30:46;;;;;;;;;;;34.10;60.80;;;;;;4977227;28;19914;-81
2022/06/22 09:33:28;;;;;;;;;;;33.10;61.60;;;;;;4977346;28;19914;-81
2022/06/22 09:35:54;;;;;;;;;;;32.40;62.90;;;;;;4977067;28;19921;-82
2022/06/22 09:38:45;;;;;;;;;;;32.00;63.10;;;;;;4977332;28;19910;-81
2022/06/22 09:41:26;;;;;;;;;;;32.80;64.20;;;;;;4974851;28;20286;-81
2022/06/22 09:44:09;;;;;;;;;;;34.00;63.20;;;;;;4977088;28;19937;-82
2022/06/22 09:46:36;;;;;;;;;;;33.90;61.40;;;;;;4976794;28;19958;-81
2022/06/22 09:49:07;;;;;;;;;;;34.30;61.10;;;;;;4976718;28;19976;-82
2022/06/22 09:51:34;;;;;;;;;;;33.60;59.60;;;;;;4959040;28;20454;-80
2022/06/22 09:57:15;;;;;;;;;;;32.20;62.70;;;;;;4976785;28;20394;-81
2022/06/22 09:59:53;;;;;;;;;;;30.90;64.70;;;;;;4976998;28;19910;-81
2022/06/22 10:02:37;;;;;;;;;;;30.70;65.30;;;;;;4976689;28;19910;-82
2022/06/22 10:05:20;;;;;;;;;;;30.80;66.20;;;;;;4976593;28;19910;-81
2022/06/22 10:07:53;;;;;;;;;;;30.50;66.00;;;;;;4976579;28;20405;-81
2022/06/22 10:10:26;;;;;;;;;;;29.90;66.80;;;;;;4976534;28;20434;-81
2022/06/22 10:13:11;;;;;;;;;;;29.50;67.20;;;;;;4976801;28;19950;-81
2022/06/22 10:15:55;;;;;;;;;;;28.90;68.50;;;;;;4976451;28;19910;-81
2022/06/22 10:18:21;;;;;;;;;;;28.30;69.80;;;;;;4976361;28;19961;-82
2022/06/22 10:21:00;;;;;;;;;;;27.90;71.40;;;;;;4976546;28;19918;-80
2022/06/22 10:23:45;;;;;;;;;;;27.70;73.20;;;;;;4976579;28;19910;-81
2022/06/22 10:26:17;;;;;;;;;;;27.80;71.90;;;;;;4974949;28;19910;-80
2022/06/22 10:29:01;;;;;;;;;;;28.00;72.10;;;;;;4976536;28;19910;-80
2022/06/22 10:31:39;;;;;;;;;;;28.10;71.60;;;;;;4976132;28;20409;-80
2022/06/22 10:34:06;;;;;;;;;;;28.10;72.80;;;;;;4976042;28;20008;-81
2022/06/22 10:36:46;;;;;;;;;;;28.10;71.90;;;;;;4976003;28;19957;-82
2022/06/22 10:39:12;;;;;;;;;;;29.20;70.70;;;;;;4976236;28;19910;-81
2022/06/22 10:47:24;;;;;;;;;;;31.50;64.90;;;;;;4975937;28;19957;-83
2022/06/22 10:50:12;;;;;;;;;;;31.70;63.50;;;;;;4975637;28;19922;-80
2022/06/22 10:52:52;;;;;;;;;;;31.60;64.30;;;;;;4976183;28;19917;-81
2022/06/22 10:55:18;;;;;;;;;;;31.10;64.10;;;;;;4975872;28;19910;-81
2022/06/22 10:58:13;;;;;;;;;;;30.40;66.00;;;;;;4975732;28;19914;-80
2022/06/22 11:00:49;;;;;;;;;;;30.10;67.40;;;;;;4966768;28;19910;-80
2022/06/22 11:03:17;;;;;;;;;;;30.60;66.80;;;;;;4974924;28;19910;-80
2022/06/22 11:06:06;;;;;;;;;;;31.80;63.80;;;;;;4975542;28;19960;-80
2022/06/22 11:08:38;;;;;;;;;;;32.60;62.60;;;;;;4956809;28;19914;-80
2022/06/22 11:11:06;;;;;;;;;;;33.60;60.80;;;;;;4975373;28;19918;-81
2022/06/22 11:13:32;;;;;;;;;;;34.30;60.50;;;;;;4975316;28;19917;-81
2022/06/22 11:16:13;;;;;;;;;;;33.20;60.30;;;;;;4975907;28;19910;-80
2022/06/22 11:18:57;;;;;;;;;;;32.10;62.60;;;;;;4975357;28;19910;-80
2022/06/22 11:21:38;;;;;;;;;;;31.50;63.40;;;;;;4975467;28;19958;-80
2022/06/22 11:24:22;;;;;;;;;;;31.90;64.30;;;;;;4975168;28;20286;-80
2022/06/22 11:32:42;;;;;;;;;;;30.10;67.00;;;;;;4975071;28;19916;-81
2022/06/22 11:35:26;;;;;;;;;;;31.00;65.40;;;;;;4975102;28;20009;-82
2022/06/22 11:38:21;;;;;;;;;;;30.90;65.50;;;;;;4975177;28;19918;-80
2022/06/22 11:41:02;;;;;;;;;;;30.70;67.80;;;;;;4965939;28;19945;-81
2022/06/22 11:43:27;;;;;;;;;;;31.10;72.10;;;;;;4975023;28;20318;-81
2022/06/22 11:46:05;;;;;;;;;;;31.60;73.20;;;;;;4974957;28;19964;-81
2022/06/22 11:48:44;;;;;;;;;;;32.00;72.80;;;;;;4974509;28;19918;-81
2022/06/22 11:51:18;;;;;;;;;;;32.40;72.60;;;;;;4974857;28;19964;-80
2022/06/22 11:54:02;;;;;;;;;;;32.60;70.40;;;;;;4975358;28;19965;-82
2022/06/22 11:56:36;;;;;;;;;;;32.50;69.10;;;;;;4957407;28;20349;-80
2022/06/22 11:59:14;;;;;;;;;;;33.70;69.30;;;;;;4974731;28;19918;-80
2022/06/22 12:01:58;;;;;;;;;;;34.80;66.10;;;;;;4974800;28;19982;-81
2022/06/22 12:04:26;;;;;;;;;;;35.60;63.40;;;;;;4974933;28;19921;-81
2022/06/22 12:06:58;;;;;;;;;;;36.20;62.50;;;;;;4974637;28;19911;-82
2022/06/22 12:09:42;;;;;;;;;;;36.90;59.50;;;;;;4974604;28;20290;-81
2022/06/22 12:12:28;;;;;;;;;;;38.30;59.60;;;;;;4974629;28;19917;-81
2022/06/22 12:15:05;;;;;;;;;;;38.80;56.10;;;;;;4976089;28;20363;-81
2022/06/22 12:17:40;;;;;;;;;;;37.60;56.10;;;;;;4979174;28;20322;-81
2022/06/22 12:20:11;;;;;;;;;;;35.30;57.30;;;;;;4980139;28;19917;-80
2022/06/22 12:23:03;;;;;;;;;;;34.30;58.70;;;;;;4980075;28;19961;-81
2022/06/22 12:25:44;;;;;;;;;;;35.20;59.10;;;;;;4962857;28;19981;-81
2022/06/22 12:28:28;;;;;;;;;;;36.80;56.20;;;;;;4978807;28;20010;-80
2022/06/22 12:30:53;;;;;;;;;;;36.40;56.40;;;;;;4978483;28;19918;-81
2022/06/22 12:33:26;;;;;;;;;;;35.70;57.10;;;;;;4978186;28;19917;-82
2022/06/22 12:36:01;;;;;;;;;;;35.40;57.50;;;;;;4978317;28;19914;-82
2022/06/22 12:38:35;;;;;;;;;;;34.90;57.80;;;;;;4978227;28;20350;-81
2022/06/22 12:41:10;;;;;;;;;;;35.30;57.70;;;;;;4978148;28;20290;-81
2022/06/22 12:43:50;;;;;;;;;;;37.00;57.10;;;;;;4978186;28;19910;-80
2022/06/22 12:49:12;;;;;;;;;;;36.80;55.70;;;;;;4977699;28;19928;-81
2022/06/22 12:52:01;;;;;;;;;;;37.00;56.10;;;;;;4977843;28;20382;-81
2022/06/22 12:54:30;;;;;;;;;;;37.00;55.10;;;;;;4978215;28;19937;-80
2022/06/22 12:56:58;;;;;;;;;;;37.30;55.40;;;;;;4978073;28;19953;-81
2022/06/22 12:59:26;;;;;;;;;;;37.90;54.70;;;;;;4977864;28;20382;-81
2022/06/22 13:01:52;;;;;;;;;;;37.30;54.50;;;;;;4960355;28;20338;-81
2022/06/22 13:04:23;;;;;;;;;;;37.50;54.40;;;;;;4977808;28;19910;-81
2022/06/22 13:06:54;;;;;;;;;;;37.00;55.00;;;;;;4977888;28;19917;-80
2022/06/22 13:09:20;;;;;;;;;;;35.20;56.90;;;;;;4977653;28;20410;-81
2022/06/22 13:11:48;;;;;;;;;;;34.10;58.50;;;;;;4977663;28;19960;-79
2022/06/22 13:14:20;;;;;;;;;;;33.20;60.30;;;;;;4960225;28;19914;-82
2022/06/22 13:17:02;;;;;;;;;;;32.70;61.20;;;;;;4977457;28;19917;-81
2022/06/22 13:19:31;;;;;;;;;;;32.10;62.40;;;;;;4977712;28;20363;-80
2022/06/22 13:22:12;;;;;;;;;;;31.50;63.50;;;;;;4977473;28;19910;-81
2022/06/22 13:24:44;;;;;;;;;;;31.20;64.70;;;;;;4977426;28;19956;-80
2022/06/22 13:27:20;;;;;;;;;;;31.30;64.70;;;;;;4976889;28;19992;-80
2022/06/22 13:29:50;;;;;;;;;;;31.30;65.10;;;;;;4977380;28;19972;-80
2022/06/22 13:32:17;;;;;;;;;;;31.40;64.70;;;;;;4977286;28;19917;-80
2022/06/22 13:34:46;;;;;;;;;;;31.20;65.20;;;;;;4977190;28;19910;-81
2022/06/22 13:37:40;;;;;;;;;;;31.50;64.60;;;;;;4977172;28;19917;-80
2022/06/22 13:40:09;;;;;;;;;;;31.90;64.00;;;;;;4968128;28;19910;-81
2022/06/22 13:42:35;;;;;;;;;;;32.20;63.70;;;;;;4977000;28;19918;-80
2022/06/22 13:45:06;;;;;;;;;;;32.00;63.70;;;;;;4977236;28;19910;-81
2022/06/22 13:47:50;;;;;;;;;;;31.40;64.30;;;;;;4977200;28;20371;-80
2022/06/22 13:50:39;;;;;;;;;;;30.90;65.40;;;;;;4976380;28;19930;-80
2022/06/22 13:53:28;;;;;;;;;;;30.50;66.80;;;;;;4976784;28;20009;-80
2022/06/22 13:55:56;;;;;;;;;;;30.00;67.90;;;;;;4970409;28;19911;-79
2022/06/22 13:58:41;;;;;;;;;;;29.40;68.90;;;;;;4976746;28;20363;-81
2022/06/22 14:01:13;;;;;;;;;;;29.00;69.10;;;;;;4976692;28;19961;-79
2022/06/22 14:03:57;;;;;;;;;;;29.30;69.20;;;;;;4976952;28;20362;-80
2022/06/22 14:06:25;;;;;;;;;;;29.30;69.10;;;;;;4976702;28;20000;-79
2022/06/22 14:09:09;;;;;;;;;;;29.50;68.60;;;;;;4976835;28;19910;-81
2022/06/22 14:11:45;;;;;;;;;;;29.60;68.20;;;;;;4976380;28;20275;-81
2022/06/22 14:14:11;;;;;;;;;;;29.70;68.20;;;;;;4976657;28;19965;-81
2022/06/22 14:16:43;;;;;;;;;;;29.40;68.30;;;;;;4976337;28;20290;-82
2022/06/22 14:19:27;;;;;;;;;;;29.70;67.80;;;;;;4958805;28;19917;-81
2022/06/22 14:21:55;;;;;;;;;;;30.10;66.70;;;;;;4956492;29;19911;-80
2022/06/22 14:24:28;;;;;;;;;;;30.70;65.70;;;;;;4956601;29;20356;-79
2022/06/22 14:26:59;;;;;;;;;;;31.50;65.30;;;;;;4956681;28;19914;-80
2022/06/22 14:29:40;;;;;;;;;;;32.80;63.40;;;;;;4956506;28;20390;-81
2022/06/22 14:32:12;;;;;;;;;;;35.00;60.10;;;;;;4956625;29;19910;-81
2022/06/22 14:34:45;;;;;;;;;;;36.50;57.20;;;;;;4956449;29;20367;-81
2022/06/22 14:37:14;;;;;;;;;;;36.80;55.50;;;;;;4956174;28;19910;-80
2022/06/22 14:39:43;;;;;;;;;;;36.50;54.70;;;;;;4956340;29;19911;-80
2022/06/22 14:42:11;;;;;;;;;;;36.10;55.20;;;;;;4956413;29;19911;-81
2022/06/22 14:44:40;;;;;;;;;;;35.70;56.10;;;;;;4956161;29;19962;-81
2022/06/22 14:47:21;;;;;;;;;;;35.60;56.00;;;;;;4958040;28;19961;-81
2022/06/22 14:49:49;;;;;;;;;;;35.20;56.20;;;;;;4975175;28;20287;-81
2022/06/22 14:52:24;;;;;;;;;;;35.20;56.90;;;;;;4975601;28;19914;-80
2022/06/22 14:55:08;;;;;;;;;;;35.10;56.70;;;;;;4975474;28;20004;-81
2022/06/22 14:57:38;;;;;;;;;;;34.80;57.50;;;;;;4974888;28;20325;-81
2022/06/22 15:00:14;;;;;;;;;;;34.30;58.40;;;;;;4975349;28;19910;-81
2022/06/22 15:02:40;;;;;;;;;;;33.70;58.30;;;;;;4975337;28;20358;-80
2022/06/22 15:05:11;;;;;;;;;;;33.60;59.10;;;;;;4975287;28;20004;-80
2022/06/22 15:07:41;;;;;;;;;;;33.60;58.90;;;;;;4969470;28;20323;-81
2022/06/22 15:10:25;;;;;;;;;;;32.90;59.50;;;;;;4954587;29;19914;-81
2022/06/22 15:13:06;;;;;;;;;;;32.40;60.60;;;;;;4955774;29;19957;-81
2022/06/22 15:15:38;;;;;;;;;;;31.90;61.40;;;;;;4955911;29;19917;-81
2022/06/22 15:18:13;;;;;;;;;;;31.30;62.70;;;;;;4955460;28;19926;-80